createdAt,value
2022-10-17T00:01:17.237Z,14.46
2022-10-17T00:06:24.012Z,14.49
2022-10-17T00:11:30.690Z,14.47
2022-10-17T00:16:38.275Z,14.48
2022-10-17T00:21:45.369Z,14.48
2022-10-17T00:26:51.936Z,14.49
2022-10-17T00:31:58.967Z,14.49
2022-10-17T00:37:05.786Z,14.49
2022-10-17T00:42:14.326Z,14.47
2022-10-17T00:47:22.665Z,14.48
2022-10-17T00:52:30.523Z,14.49
2022-10-17T00:57:37.919Z,14.47
2022-10-17T01:02:44.467Z,14.48
2022-10-17T01:07:52.565Z,14.47
2022-10-17T01:13:05.365Z,14.47
2022-10-17T01:18:17.486Z,14.49
2022-10-17T01:23:32.359Z,14.47
2022-10-17T01:28:52.336Z,14.50
2022-10-17T01:34:02.825Z,14.48
2022-10-17T01:39:15.023Z,14.49
2022-10-17T01:44:23.260Z,14.46
2022-10-17T01:49:31.455Z,14.48
2022-10-17T01:54:41.770Z,14.47
2022-10-17T01:59:49.569Z,14.48
2022-10-17T02:04:57.651Z,14.46
2022-10-17T02:10:04.806Z,14.49
2022-10-17T02:15:22.986Z,14.45
2022-10-17T02:20:32.636Z,14.50
2022-10-17T02:25:42.029Z,14.47
2022-10-17T02:30:50.576Z,14.48
2022-10-17T02:35:59.943Z,14.49
2022-10-17T02:41:08.058Z,14.47
2022-10-17T02:46:21.449Z,14.49
2022-10-17T02:51:31.166Z,14.47
2022-10-17T02:56:40.006Z,14.46
2022-10-17T03:01:46.685Z,14.47
2022-10-17T03:06:53.366Z,14.47
2022-10-17T03:12:00.570Z,14.48
2022-10-17T03:17:07.251Z,14.47
2022-10-17T03:22:13.711Z,14.47
2022-10-17T03:27:20.295Z,14.47
2022-10-17T03:32:27.090Z,14.47
2022-10-17T03:37:33.921Z,14.47
2022-10-17T03:42:40.956Z,14.47
2022-10-17T03:47:47.711Z,14.47
2022-10-17T03:52:54.202Z,14.45
2022-10-17T03:58:00.920Z,14.45
2022-10-17T04:03:07.350Z,14.48
2022-10-17T04:08:13.886Z,14.47
2022-10-17T04:13:20.332Z,14.47
2022-10-17T04:18:27.041Z,14.44
2022-10-17T04:23:33.724Z,14.47
2022-10-17T04:28:40.533Z,14.44
2022-10-17T04:33:48.743Z,14.45
2022-10-17T04:38:55.331Z,14.47
2022-10-17T04:44:02.070Z,14.47
2022-10-17T04:49:08.884Z,14.44
2022-10-17T04:54:15.371Z,14.48
2022-10-17T04:59:22.492Z,14.44
2022-10-17T05:04:28.950Z,14.48
2022-10-17T05:09:35.700Z,14.44
2022-10-17T05:14:42.401Z,14.45
2022-10-17T05:19:49.011Z,14.44
2022-10-17T05:24:55.548Z,14.46
2022-10-17T05:30:02.462Z,14.45
2022-10-17T05:35:09.711Z,14.47
2022-10-17T05:40:16.604Z,14.46
2022-10-17T05:45:23.484Z,14.47
2022-10-17T05:50:30.363Z,14.47
2022-10-17T05:55:37.433Z,14.48
2022-10-17T06:00:44.174Z,14.49
2022-10-17T06:05:50.923Z,14.52
2022-10-17T06:10:57.390Z,14.54
2022-10-17T06:16:03.830Z,14.54
2022-10-17T06:21:11.615Z,14.56
2022-10-17T06:26:18.410Z,14.59
2022-10-17T06:31:24.980Z,14.59
2022-10-17T06:36:31.545Z,14.61
2022-10-17T06:41:38.464Z,14.61
2022-10-17T06:46:45.361Z,14.61
2022-10-17T06:51:51.902Z,14.61
2022-10-17T06:56:58.570Z,14.59
2022-10-17T07:02:05.830Z,14.60
2022-10-17T07:07:12.454Z,14.64
2022-10-17T07:12:18.872Z,14.61
2022-10-17T07:17:25.410Z,14.62
2022-10-17T07:22:31.936Z,14.62
2022-10-17T07:27:38.574Z,14.64
2022-10-17T07:32:45.629Z,14.64
2022-10-17T07:37:52.351Z,14.64
2022-10-17T07:42:59.000Z,14.63
2022-10-17T07:48:05.820Z,14.64
2022-10-17T07:53:13.084Z,14.63
2022-10-17T07:58:20.181Z,14.62
2022-10-17T08:03:26.910Z,14.64
2022-10-17T08:08:33.738Z,14.64
2022-10-17T08:13:40.889Z,14.63
2022-10-17T08:18:47.611Z,14.63
2022-10-17T08:23:54.113Z,14.64
2022-10-17T08:29:00.760Z,14.65
2022-10-17T08:34:07.430Z,14.64
2022-10-17T08:39:14.009Z,14.65
2022-10-17T08:44:27.539Z,14.66
2022-10-17T08:49:39.390Z,14.68
2022-10-17T08:54:47.810Z,14.69
2022-10-17T08:59:55.392Z,14.69
2022-10-17T09:05:10.871Z,14.70
2022-10-17T09:10:23.309Z,14.72
2022-10-17T09:15:40.361Z,14.78
2022-10-17T09:20:47.840Z,14.86
2022-10-17T09:25:55.193Z,14.97
2022-10-17T09:31:03.330Z,15.01
2022-10-17T09:36:14.518Z,15.07
2022-10-17T09:41:44.368Z,15.12
2022-10-17T09:46:56.440Z,15.18
2022-10-17T09:52:04.671Z,15.19
2022-10-17T09:57:12.262Z,15.22
2022-10-17T10:02:20.943Z,15.21
2022-10-17T10:07:29.454Z,15.24
2022-10-17T10:12:37.466Z,15.22
2022-10-17T10:17:44.411Z,15.27
2022-10-17T10:23:06.441Z,15.31
2022-10-17T10:28:13.735Z,15.32
2022-10-17T10:33:21.001Z,15.30
2022-10-17T10:38:27.840Z,15.31
2022-10-17T10:43:38.159Z,15.30
2022-10-17T10:48:51.911Z,15.28
2022-10-17T10:54:03.091Z,15.26
2022-10-17T10:59:12.953Z,15.28
2022-10-17T11:04:29.240Z,15.29
2022-10-17T11:09:43.300Z,15.25
2022-10-17T11:14:53.769Z,15.28
2022-10-17T11:20:05.652Z,15.24
2022-10-17T11:25:21.490Z,15.23
2022-10-17T11:30:30.294Z,15.20
2022-10-17T11:35:38.796Z,15.22
2022-10-17T11:40:47.424Z,15.22
2022-10-17T11:45:54.991Z,15.21
2022-10-17T11:56:33.859Z,15.19
2022-10-17T12:01:42.730Z,15.19
2022-10-17T12:07:00.553Z,15.19
2022-10-17T12:12:07.134Z,15.19
2022-10-17T12:17:27.373Z,15.15
2022-10-17T12:22:35.283Z,15.14
2022-10-17T12:33:59.412Z,15.11
2022-10-17T12:39:25.769Z,15.11
2022-10-17T12:44:39.783Z,15.14
2022-10-17T12:49:47.131Z,15.13
2022-10-17T12:55:17.031Z,15.15
2022-10-17T13:00:25.904Z,15.13
2022-10-17T13:05:33.791Z,15.15
2022-10-17T13:10:43.614Z,15.14
2022-10-17T13:15:51.209Z,15.15
2022-10-17T13:21:02.198Z,15.14
2022-10-17T13:26:10.391Z,15.13
2022-10-17T13:31:31.836Z,15.10
2022-10-17T13:36:38.779Z,15.10
2022-10-17T13:41:45.403Z,15.13
2022-10-17T13:46:52.026Z,15.14
2022-10-17T13:52:00.163Z,15.13
2022-10-17T13:57:07.650Z,15.13
2022-10-17T14:02:16.992Z,15.12
2022-10-17T14:07:27.108Z,15.15
2022-10-17T14:12:35.031Z,15.14
2022-10-17T14:17:42.182Z,15.14
2022-10-17T14:23:04.521Z,15.14
2022-10-17T14:28:18.842Z,15.13
2022-10-17T14:33:26.453Z,15.14
2022-10-17T14:38:33.500Z,15.15
2022-10-17T14:43:39.919Z,15.14
2022-10-17T14:48:48.082Z,15.14
2022-10-17T14:54:05.579Z,15.14
2022-10-17T14:59:21.434Z,15.14
2022-10-17T15:04:32.772Z,15.13
2022-10-17T15:09:40.327Z,15.13
2022-10-17T15:14:48.324Z,15.11
2022-10-17T15:19:54.881Z,15.14
2022-10-17T15:25:01.588Z,15.14
2022-10-17T15:30:21.459Z,15.14
2022-10-17T15:35:29.214Z,15.15
2022-10-17T15:40:35.816Z,15.12
2022-10-17T15:45:42.462Z,15.10
2022-10-17T15:50:49.161Z,15.13
2022-10-17T15:55:55.871Z,15.13
2022-10-17T16:01:02.678Z,15.15
2022-10-17T16:06:13.494Z,15.12
2022-10-17T16:11:23.739Z,15.15
2022-10-17T16:16:30.539Z,15.13
2022-10-17T16:21:38.187Z,15.14
2022-10-17T16:26:45.022Z,15.13
2022-10-17T16:31:51.696Z,15.15
2022-10-17T16:36:58.197Z,15.14
2022-10-17T16:42:04.556Z,15.11
2022-10-17T16:47:11.607Z,15.14
2022-10-17T16:52:18.123Z,15.14
2022-10-17T16:57:24.861Z,15.13
2022-10-17T17:02:31.536Z,15.11
2022-10-17T17:07:38.496Z,15.13
2022-10-17T17:12:45.288Z,15.14
2022-10-17T17:17:55.371Z,15.16
2022-10-17T17:23:02.543Z,15.13
2022-10-17T17:28:09.900Z,15.15
2022-10-17T17:33:16.785Z,15.16
2022-10-17T17:38:23.345Z,15.15
2022-10-17T17:43:30.246Z,15.14
2022-10-17T17:48:38.706Z,15.14
2022-10-17T17:53:45.478Z,15.14
2022-10-17T17:58:56.100Z,15.17
2022-10-17T18:04:05.920Z,15.16
2022-10-17T18:09:12.645Z,15.14
2022-10-17T18:14:24.614Z,15.17
2022-10-17T18:19:31.519Z,15.17
2022-10-17T18:24:38.906Z,15.14
2022-10-17T18:29:47.072Z,15.12
2022-10-17T18:34:54.105Z,15.15
2022-10-17T18:40:00.634Z,15.15
2022-10-17T18:45:07.971Z,15.14
2022-10-17T18:50:14.291Z,15.17
2022-10-17T18:55:21.090Z,15.14
2022-10-17T19:00:27.952Z,15.17
2022-10-17T19:05:35.190Z,15.15
2022-10-17T19:10:41.982Z,15.16
2022-10-17T19:15:48.709Z,15.14
2022-10-17T19:20:55.480Z,15.16
2022-10-17T19:26:06.003Z,15.15
2022-10-17T19:31:16.903Z,15.16
2022-10-17T19:36:28.833Z,15.17
2022-10-17T19:41:39.335Z,15.18
2022-10-17T19:46:47.207Z,15.18
2022-10-17T19:51:53.763Z,15.14
2022-10-17T19:57:00.593Z,15.15
2022-10-17T20:02:07.273Z,15.18
2022-10-17T20:07:13.983Z,15.16
2022-10-17T20:12:20.651Z,15.15
2022-10-17T20:17:27.736Z,15.18
2022-10-17T20:22:34.993Z,15.18
2022-10-17T20:27:41.729Z,15.19
2022-10-17T20:32:48.397Z,15.16
2022-10-17T20:37:55.050Z,15.16
2022-10-17T20:43:01.778Z,15.18
2022-10-17T20:48:08.974Z,15.15
2022-10-17T20:53:36.599Z,15.16
2022-10-17T20:58:43.170Z,15.15
2022-10-17T21:03:49.890Z,15.18
2022-10-17T21:08:56.770Z,15.18
2022-10-17T21:14:04.126Z,15.18
2022-10-17T21:19:11.939Z,15.18
2022-10-17T21:24:21.061Z,15.18
2022-10-17T21:29:27.990Z,15.19
2022-10-17T21:34:34.627Z,15.18
2022-10-17T21:39:41.399Z,15.18
2022-10-17T21:44:47.988Z,15.17
2022-10-17T21:49:54.508Z,15.16
2022-10-17T21:55:01.178Z,15.18
2022-10-17T22:00:08.473Z,15.17
2022-10-17T22:05:15.348Z,15.16
2022-10-17T22:10:21.924Z,15.17
2022-10-17T22:15:28.564Z,15.19
2022-10-17T22:20:36.985Z,15.19
2022-10-17T22:25:43.767Z,15.17
2022-10-17T22:30:50.506Z,15.16
2022-10-17T22:35:57.045Z,15.19
2022-10-17T22:41:03.845Z,15.19
2022-10-17T22:46:13.306Z,15.17
2022-10-17T22:51:20.127Z,15.16
2022-10-17T22:56:26.799Z,15.21
2022-10-17T23:01:33.358Z,15.19
2022-10-17T23:06:40.245Z,15.16
2022-10-17T23:11:46.867Z,15.20
2022-10-17T23:16:53.705Z,15.19
2022-10-17T23:22:00.326Z,15.17
2022-10-17T23:27:07.180Z,15.19
2022-10-17T23:32:13.752Z,15.18
2022-10-17T23:37:20.873Z,15.19
2022-10-17T23:42:27.581Z,15.19
2022-10-17T23:47:34.394Z,15.18
2022-10-17T23:52:41.152Z,15.20
2022-10-17T23:57:47.890Z,15.18
